| time (UTC) | temp C | wind direction | speed KPH | gust KPH | rain 1hr cm | rain 24hr cm | rain mn cm | humidity % | barometer mb |
| 20260504202749 | 28 | 112 | 4.8 | 11.3 | 0.00 | 0.00 | 0.00 | 44 | 1014.8 |
| 20260504202254 | 28 | 45 | 9.7 | 22.5 | 0.00 | 0.00 | 0.00 | 44 | 1014.9 |
| 20260504201826 | 29 | 112 | 3.2 | 8.0 | 0.00 | 0.00 | 0.00 | 43 | 1014.8 |
| 20260504201414 | 28 | 45 | 4.8 | 9.7 | 0.00 | 0.00 | 0.00 | 43 | 1014.9 |
| 20260504200914 | 28 | 135 | 6.4 | 19.3 | 0.00 | 0.00 | 0.00 | 45 | 1015.0 |
| 20260504200500 | 28 | 90 | 4.8 | 16.1 | 0.00 | 0.00 | 0.00 | 45 | 1015.0 |
| 20260504200039 | 28 | 90 | 4.8 | 16.1 | 0.00 | 0.00 | 0.00 | 45 | 1015.0 |
| 20260504195639 | 28 | 135 | 3.2 | 9.7 | 0.00 | 0.00 | 0.00 | 44 | 1015.1 |
| 20260504195214 | 28 | 68 | 4.8 | 11.3 | 0.00 | 0.00 | 0.00 | 44 | 1015.3 |
| 20260504194810 | 28 | 68 | 4.8 | 11.3 | 0.00 | 0.00 | 0.00 | 45 | 1015.3 |
| 20260504194354 | 28 | 90 | 6.4 | 14.5 | 0.00 | 0.00 | 0.00 | 43 | 1015.3 |
| 20260504193904 | 29 | 90 | 4.8 | 9.7 | 0.00 | 0.00 | 0.00 | 43 | 1015.3 |
| 20260504193420 | 28 | 90 | 4.8 | 11.3 | 0.00 | 0.00 | 0.00 | 44 | 1015.4 |
| 20260504192920 | 28 | 45 | 4.8 | 11.3 | 0.00 | 0.00 | 0.00 | 44 | 1015.5 |
| 20260504192435 | 28 | 90 | 6.4 | 16.1 | 0.00 | 0.00 | 0.00 | 45 | 1015.6 |
| 20260504192009 | 28 | 45 | 6.4 | 14.5 | 0.00 | 0.00 | 0.00 | 46 | 1015.8 |
| 20260504191539 | 28 | 45 | 6.4 | 14.5 | 0.00 | 0.00 | 0.00 | 46 | 1015.8 |
| 20260504191119 | 27 | 68 | 9.7 | 17.7 | 0.00 | 0.00 | 0.00 | 46 | 1015.7 |
| 20260504190629 | 28 | 112 | 3.2 | 16.1 | 0.00 | 0.00 | 0.00 | 45 | 1015.8 |
| 20260504190214 | 27 | 112 | 3.2 | 9.7 | 0.00 | 0.00 | 0.00 | 45 | 1016.0 |
| 20260504185724 | 27 | 68 | 4.8 | 11.3 | 0.00 | 0.00 | 0.00 | 45 | 1015.9 |
| 20260504185324 | 27 | 68 | 8.0 | 14.5 | 0.00 | 0.00 | 0.00 | 46 | 1015.9 |
| 20260504184840 | 28 | 90 | 6.4 | 17.7 | 0.00 | 0.00 | 0.00 | 44 | 1016.1 |
| 20260504184350 | 28 | 90 | 8.0 | 16.1 | 0.00 | 0.00 | 0.00 | 45 | 1016.2 |
| 20260504183950 | 27 | 90 | 4.8 | 12.9 | 0.00 | 0.00 | 0.00 | 44 | 1016.4 |
| 20260504183525 | 27 | 90 | 4.8 | 12.9 | 0.00 | 0.00 | 0.00 | 44 | 1016.4 |
| 20260504183057 | 28 | 90 | 6.4 | 11.3 | 0.00 | 0.00 | 0.00 | 43 | 1016.5 |
| 20260504182650 | 28 | 112 | 8.0 | 14.5 | 0.00 | 0.00 | 0.00 | 42 | 1016.6 |
| 20260504182210 | 28 | 68 | 4.8 | 12.9 | 0.00 | 0.00 | 0.00 | 44 | 1016.7 |
| 20260504181805 | 27 | 112 | 4.8 | 11.3 | 0.00 | 0.00 | 0.00 | 46 | 1016.8 |
| 20260504181330 | 27 | 112 | 8.0 | 17.7 | 0.00 | 0.00 | 0.00 | 45 | 1016.9 |
| 20260504180854 | 27 | 90 | 8.0 | 19.3 | 0.00 | 0.00 | 0.00 | 45 | 1016.9 |
| 20260504180445 | 27 | 90 | 6.4 | 14.5 | 0.00 | 0.00 | 0.00 | 45 | 1017.1 |
| 20260504180010 | 27 | 112 | 4.8 | 11.3 | 0.00 | 0.00 | 0.00 | 45 | 1017.0 |
| 20260504175534 | 27 | 112 | 4.8 | 11.3 | 0.00 | 0.00 | 0.00 | 45 | 1017.0 |
| 20260504175040 | 27 | 112 | 8.0 | 16.1 | 0.00 | 0.00 | 0.00 | 46 | 1017.2 |
| 20260504174600 | 27 | 158 | 8.0 | 19.3 | 0.00 | 0.00 | 0.00 | 46 | 1017.2 |
| 20260504174200 | 27 | 135 | 6.4 | 12.9 | 0.00 | 0.00 | 0.00 | 47 | 1017.2 |
| 20260504173725 | 27 | 68 | 8.0 | 17.7 | 0.00 | 0.00 | 0.00 | 48 | 1017.2 |
| 20260504173229 | 27 | 90 | 11.3 | 19.3 | 0.00 | 0.00 | 0.00 | 48 | 1017.4 |
| 20260504172830 | 26 | 68 | 6.4 | 11.3 | 0.00 | 0.00 | 0.00 | 48 | 1017.4 |
| 20260504172429 | 26 | 68 | 12.9 | 24.1 | 0.00 | 0.00 | 0.00 | 47 | 1017.2 |
| 20260504171939 | 27 | 90 | 8.0 | 16.1 | 0.00 | 0.00 | 0.00 | 49 | 1017.4 |
| 20260504171514 | 27 | 90 | 9.7 | 22.5 | 0.00 | 0.00 | 0.00 | 49 | 1017.4 |
| 20260504171024 | 27 | 90 | 9.7 | 22.5 | 0.00 | 0.00 | 0.00 | 49 | 1017.4 |
| 20260504170554 | 26 | 135 | 8.0 | 17.7 | 0.00 | 0.00 | 0.00 | 49 | 1017.4 |
| 20260504170110 | 26 | 68 | 9.7 | 17.7 | 0.00 | 0.00 | 0.00 | 49 | 1017.6 |
| 20260504160354 | 26 | 45 | 9.7 | 19.3 | 0.00 | 0.00 | 0.00 | 53 | 1017.9 |
| 20260504151034 | 25 | 90 | 11.3 | 20.9 | 0.00 | 0.00 | 0.00 | 58 | 1018.3 |
| 20260504150635 | 25 | 68 | 9.7 | 19.3 | 0.00 | 0.00 | 0.00 | 59 | 1018.3 |
| 20260504150144 | 24 | 68 | 11.3 | 22.5 | 0.00 | 0.00 | 0.00 | 61 | 1018.2 |
| 20260504141330 | 23 | 68 | 11.3 | 25.7 | 0.00 | 0.00 | 0.00 | 64 | 1018.0 |
| 20260504140914 | 23 | 68 | 9.7 | 20.9 | 0.00 | 0.00 | 0.00 | 65 | 1017.9 |
| 20260504140444 | 23 | 68 | 11.3 | 24.1 | 0.00 | 0.00 | 0.00 | 64 | 1017.9 |
| 20260504130629 | 22 | 45 | 9.7 | 19.3 | 0.00 | 0.00 | 0.00 | 67 | 1017.7 |
| 20260504130152 | 22 | 68 | 8.0 | 14.5 | 0.00 | 0.00 | 0.00 | 68 | 1017.6 |
| 20260504120212 | 21 | 90 | 4.8 | 9.7 | 0.00 | 0.00 | 0.00 | 72 | 1017.3 |
| 20260504110655 | 19 | 68 | 3.2 | 11.3 | 0.00 | 0.00 | 0.00 | 77 | 1017.0 |
| 20260504110231 | 19 | 68 | 3.2 | 9.7 | 0.00 | 0.00 | 0.00 | 77 | 1017.0 |
| 20260504100546 | 19 | 45 | 1.6 | 4.8 | 0.00 | 0.00 | 0.00 | 78 | 1016.7 |
| 20260504081754 | 20 | 68 | 3.2 | 6.4 | 0.00 | 0.00 | 0.00 | 73 | 1016.4 |
| 20260504081349 | 21 | 68 | 3.2 | 9.7 | 0.00 | 0.00 | 0.00 | 73 | 1016.4 |
| 20260504080924 | 21 | 68 | 3.2 | 8.0 | 0.00 | 0.00 | 0.00 | 73 | 1016.3 |
| 20260504080524 | 21 | 68 | 3.2 | 8.0 | 0.00 | 0.00 | 0.00 | 73 | 1016.3 |
| 20260504070339 | 21 | 68 | 3.2 | 8.0 | 0.00 | 0.00 | 0.00 | 72 | 1017.2 |
| 20260504060205 | 21 | 68 | 1.6 | 4.8 | 0.00 | 0.00 | 0.00 | 73 | 1017.0 |
| 20260504050409 | 21 | 90 | 3.2 | 8.0 | 0.00 | 0.00 | 0.00 | 73 | 1017.4 |
| 20260504050009 | 21 | 90 | 3.2 | 8.0 | 0.00 | 0.00 | 0.00 | 72 | 1017.6 |
| 20260504045529 | 21 | 90 | 3.2 | 8.0 | 0.00 | 0.00 | 0.00 | 72 | 1017.6 |
| 20260504045128 | 21 | 68 | 3.2 | 6.4 | 0.00 | 0.00 | 0.00 | 72 | 1017.6 |
| 20260504044705 | 21 | 68 | 3.2 | 8.0 | 0.00 | 0.00 | 0.00 | 72 | 1017.7 |
| 20260504044229 | 21 | 90 | 6.4 | 14.5 | 0.00 | 0.00 | 0.00 | 72 | 1017.7 |
| 20260504043811 | 22 | 90 | 3.2 | 8.0 | 0.00 | 0.00 | 0.00 | 71 | 1017.7 |
| 20260504043359 | 22 | 90 | 9.7 | 19.3 | 0.00 | 0.00 | 0.00 | 71 | 1017.5 |
| 20260504042954 | 22 | 90 | 4.8 | 14.5 | 0.00 | 0.00 | 0.00 | 71 | 1017.7 |
| 20260504042509 | 22 | 90 | 6.4 | 14.5 | 0.00 | 0.00 | 0.00 | 71 | 1017.8 |
| 20260504042035 | 22 | 90 | 6.4 | 14.5 | 0.00 | 0.00 | 0.00 | 71 | 1017.8 |
| 20260504041600 | 22 | 90 | 8.0 | 20.9 | 0.00 | 0.00 | 0.00 | 71 | 1018.0 |
| 20260504041124 | 22 | 90 | 6.4 | 12.9 | 0.00 | 0.00 | 0.00 | 71 | 1017.8 |
| 20260504040624 | 22 | 68 | 6.4 | 16.1 | 0.00 | 0.00 | 0.00 | 71 | 1018.0 |
| 20260504040153 | 22 | 68 | 6.4 | 16.1 | 0.00 | 0.00 | 0.00 | 71 | 1018.0 |
| 20260504035700 | 22 | 90 | 4.8 | 14.5 | 0.00 | 0.00 | 0.03 | 71 | 1018.3 |
| 20260504035201 | 22 | 90 | 4.8 | 14.5 | 0.00 | 0.00 | 0.03 | 70 | 1018.3 |
| 20260504034759 | 22 | 68 | 4.8 | 9.7 | 0.00 | 0.00 | 0.03 | 70 | 1018.1 |
| 20260504034400 | 22 | 90 | 6.4 | 14.5 | 0.00 | 0.00 | 0.03 | 70 | 1018.1 |
| 20260504033936 | 22 | 112 | 8.0 | 16.1 | 0.00 | 0.00 | 0.03 | 70 | 1018.2 |
| 20260504033506 | 22 | 90 | 8.0 | 16.1 | 0.00 | 0.00 | 0.03 | 70 | 1018.1 |
| 20260504033010 | 22 | 90 | 4.8 | 12.9 | 0.00 | 0.00 | 0.03 | 69 | 1018.3 |
| 20260504032515 | 22 | 90 | 4.8 | 9.7 | 0.00 | 0.00 | 0.03 | 69 | 1018.2 |
| 20260504032102 | 22 | 90 | 4.8 | 9.7 | 0.00 | 0.00 | 0.03 | 69 | 1018.2 |
| 20260504031630 | 23 | 112 | 4.8 | 9.7 | 0.00 | 0.00 | 0.03 | 69 | 1018.1 |
| 20260504031216 | 23 | 90 | 4.8 | 16.1 | 0.00 | 0.00 | 0.03 | 69 | 1018.1 |
| 20260504030725 | 23 | 90 | 4.8 | 9.7 | 0.00 | 0.00 | 0.03 | 69 | 1018.0 |
| 20260504030315 | 23 | 68 | 3.2 | 11.3 | 0.00 | 0.00 | 0.03 | 69 | 1018.0 |
| 20260504025905 | 23 | 90 | 4.8 | 12.9 | 0.00 | 0.00 | 0.03 | 69 | 1017.9 |
| 20260504025508 | 23 | 112 | 4.8 | 14.5 | 0.00 | 0.00 | 0.03 | 69 | 1018.0 |
| 20260504025040 | 23 | 112 | 4.8 | 14.5 | 0.00 | 0.00 | 0.03 | 69 | 1018.0 |
| 20260504024609 | 23 | 90 | 6.4 | 16.1 | 0.00 | 0.00 | 0.03 | 69 | 1017.9 |
| 20260504024153 | 23 | 68 | 4.8 | 11.3 | 0.00 | 0.00 | 0.03 | 69 | 1017.9 |
| 20260504023650 | 23 | 68 | 1.6 | 9.7 | 0.00 | 0.00 | 0.03 | 69 | 1017.8 |
| 20260504023203 | 23 | 68 | 1.6 | 6.4 | 0.00 | 0.00 | 0.03 | 68 | 1017.8 |
| 20260504022719 | 23 | 68 | 1.6 | 4.8 | 0.00 | 0.00 | 0.03 | 66 | 1017.8 |
| 20260504022229 | 23 | 22 | 1.6 | 6.4 | 0.00 | 0.00 | 0.03 | 65 | 1017.7 |
| 20260504021754 | 23 | 68 | 3.2 | 9.7 | 0.00 | 0.00 | 0.03 | 66 | 1017.7 |
| 20260504021343 | 23 | 0.0 | 3.2 | 0.00 | 0.00 | 0.03 | 65 | 1017.6 | |
| 20260504020855 | 23 | 0.0 | 3.2 | 0.00 | 0.00 | 0.03 | 65 | 1017.6 | |
| 20260504020359 | 22 | 112 | 3.2 | 8.0 | 0.00 | 0.00 | 0.03 | 65 | 1017.5 |
| 20260504015900 | 22 | 68 | 1.6 | 4.8 | 0.00 | 0.00 | 0.03 | 65 | 1017.3 |
| 20260504015414 | 22 | 360 | 1.6 | 4.8 | 0.00 | 0.00 | 0.03 | 66 | 1017.4 |
| 20260504014955 | 22 | 45 | 1.6 | 3.2 | 0.00 | 0.00 | 0.03 | 66 | 1017.3 |
| 20260504014544 | 22 | 45 | 1.6 | 3.2 | 0.00 | 0.00 | 0.03 | 66 | 1017.3 |
| 20260504014129 | 22 | 0.0 | 3.2 | 0.00 | 0.00 | 0.03 | 66 | 1017.4 | |
| 20260504013710 | 22 | 0.0 | 3.2 | 0.00 | 0.00 | 0.03 | 66 | 1017.4 | |
| 20260504013244 | 22 | 360 | 1.6 | 3.2 | 0.00 | 0.00 | 0.03 | 66 | 1017.3 |
| 20260504012842 | 22 | 360 | 1.6 | 4.8 | 0.00 | 0.00 | 0.03 | 66 | 1017.1 |
| 20260504012400 | 22 | 360 | 1.6 | 6.4 | 0.00 | 0.00 | 0.03 | 66 | 1017.2 |
| 20260504011929 | 22 | 338 | 1.6 | 4.8 | 0.00 | 0.00 | 0.03 | 66 | 1017.1 |
| 20260504011523 | 22 | 338 | 1.6 | 4.8 | 0.00 | 0.00 | 0.03 | 66 | 1017.1 |
| 20260504011119 | 22 | 360 | 1.6 | 4.8 | 0.00 | 0.00 | 0.03 | 66 | 1017.1 |
| 20260504010624 | 22 | 22 | 1.6 | 4.8 | 0.00 | 0.00 | 0.03 | 66 | 1017.0 |
| 20260504010135 | 22 | 338 | 1.6 | 4.8 | 0.00 | 0.00 | 0.03 | 66 | 1016.9 |
| 20260504005644 | 23 | 338 | 1.6 | 8.0 | 0.00 | 0.00 | 0.03 | 66 | 1016.8 |
| 20260504005144 | 23 | 22 | 1.6 | 4.8 | 0.00 | 0.00 | 0.03 | 66 | 1016.7 |
| 20260504004714 | 23 | 22 | 1.6 | 4.8 | 0.00 | 0.00 | 0.03 | 66 | 1016.7 |
| 20260504004216 | 23 | 338 | 3.2 | 6.4 | 0.00 | 0.00 | 0.03 | 66 | 1016.7 |
| 20260504003759 | 23 | 338 | 3.2 | 6.4 | 0.00 | 0.00 | 0.03 | 66 | 1016.7 |
| 20260504003331 | 23 | 360 | 4.8 | 8.0 | 0.00 | 0.00 | 0.03 | 66 | 1016.6 |
| 20260504002909 | 23 | 360 | 4.8 | 11.3 | 0.00 | 0.00 | 0.03 | 66 | 1016.5 |
| 20260504002442 | 23 | 338 | 4.8 | 12.9 | 0.00 | 0.00 | 0.03 | 65 | 1016.5 |
| 20260504002011 | 23 | 338 | 3.2 | 9.7 | 0.00 | 0.00 | 0.03 | 65 | 1016.4 |
| 20260504001602 | 23 | 338 | 3.2 | 9.7 | 0.00 | 0.00 | 0.03 | 65 | 1016.4 |
| 20260504001159 | 23 | 338 | 3.2 | 14.5 | 0.00 | 0.00 | 0.03 | 65 | 1016.3 |
| 20260504000700 | 23 | 338 | 3.2 | 11.3 | 0.00 | 0.00 | 0.03 | 65 | 1016.3 |
| 20260504000244 | 23 | 360 | 4.8 | 14.5 | 0.00 | 0.00 | 0.03 | 65 | 1016.4 |
| 20260503235825 | 23 | 338 | 4.8 | 11.3 | 0.00 | 0.00 | 0.03 | 65 | 1016.2 |
| 20260503235349 | 23 | 338 | 4.8 | 12.9 | 0.00 | 0.00 | 0.03 | 64 | 1016.1 |
| 20260503234919 | 23 | 338 | 6.4 | 16.1 | 0.00 | 0.00 | 0.03 | 64 | 1016.2 |
| 20260503234511 | 24 | 338 | 6.4 | 11.3 | 0.00 | 0.00 | 0.03 | 63 | 1016.2 |
| 20260503234110 | 24 | 338 | 6.4 | 11.3 | 0.00 | 0.00 | 0.03 | 63 | 1016.2 |
| 20260503233629 | 24 | 338 | 6.4 | 14.5 | 0.00 | 0.00 | 0.03 | 62 | 1016.3 |
| 20260503233220 | 25 | 338 | 3.2 | 9.7 | 0.00 | 0.00 | 0.03 | 62 | 1016.2 |
| 20260503232811 | 25 | 338 | 3.2 | 11.3 | 0.00 | 0.00 | 0.03 | 62 | 1016.2 |
| 20260503232346 | 25 | 338 | 4.8 | 12.9 | 0.00 | 0.00 | 0.03 | 61 | 1016.2 |
| 20260503231910 | 25 | 338 | 4.8 | 16.1 | 0.00 | 0.00 | 0.03 | 61 | 1016.0 |
| 20260503231454 | 25 | 360 | 4.8 | 11.3 | 0.00 | 0.00 | 0.03 | 60 | 1016.1 |
| 20260503231008 | 26 | 338 | 6.4 | 12.9 | 0.00 | 0.00 | 0.03 | 59 | 1016.0 |
| 20260503230603 | 26 | 338 | 6.4 | 12.9 | 0.00 | 0.00 | 0.03 | 59 | 1016.0 |
| 20260503230124 | 26 | 315 | 3.2 | 9.7 | 0.00 | 0.00 | 0.03 | 59 | 1016.1 |
| 20260503225720 | 26 | 315 | 3.2 | 9.7 | 0.00 | 0.00 | 0.03 | 59 | 1016.1 |
| 20260503225225 | 26 | 338 | 6.4 | 16.1 | 0.00 | 0.00 | 0.03 | 59 | 1016.0 |
| 20260503224808 | 26 | 338 | 4.8 | 11.3 | 0.00 | 0.00 | 0.03 | 58 | 1016.1 |
| 20260503224349 | 26 | 68 | 3.2 | 11.3 | 0.00 | 0.00 | 0.03 | 56 | 1016.1 |
| 20260503223944 | 26 | 45 | 4.8 | 11.3 | 0.00 | 0.00 | 0.03 | 54 | 1016.0 |
| 20260503223526 | 26 | 45 | 4.8 | 11.3 | 0.00 | 0.00 | 0.03 | 54 | 1016.0 |
| 20260503223110 | 26 | 45 | 6.4 | 11.3 | 0.00 | 0.00 | 0.03 | 54 | 1015.9 |
| 20260503222613 | 26 | 68 | 1.6 | 4.8 | 0.00 | 0.00 | 0.03 | 53 | 1016.0 |
| 20260503222154 | 26 | 90 | 6.4 | 12.9 | 0.00 | 0.00 | 0.03 | 54 | 1015.9 |
| 20260503221714 | 26 | 45 | 4.8 | 8.0 | 0.00 | 0.00 | 0.03 | 53 | 1016.0 |
| 20260503221255 | 26 | 22 | 4.8 | 9.7 | 0.00 | 0.00 | 0.03 | 54 | 1015.9 |
| 20260503220814 | 26 | 338 | 3.2 | 8.0 | 0.00 | 0.00 | 0.03 | 53 | 1016.0 |
| 20260503220328 | 26 | 45 | 4.8 | 11.3 | 0.00 | 0.00 | 0.03 | 54 | 1016.1 |
| 20260503215909 | 26 | 338 | 4.8 | 12.9 | 0.00 | 0.00 | 0.03 | 54 | 1016.1 |
| 20260503215430 | 26 | 338 | 4.8 | 11.3 | 0.00 | 0.00 | 0.03 | 53 | 1016.1 |
| 20260503215025 | 26 | 338 | 4.8 | 11.3 | 0.00 | 0.00 | 0.03 | 53 | 1016.1 |
| 20260503214617 | 26 | 338 | 4.8 | 9.7 | 0.00 | 0.00 | 0.03 | 54 | 1015.9 |
| 20260503214212 | 26 | 22 | 3.2 | 9.7 | 0.00 | 0.00 | 0.03 | 54 | 1016.0 |
| 20260503213714 | 26 | 45 | 4.8 | 8.0 | 0.00 | 0.00 | 0.03 | 54 | 1016.0 |
| 20260503213305 | 27 | 360 | 1.6 | 6.4 | 0.00 | 0.00 | 0.03 | 54 | 1016.1 |
| 20260503212820 | 26 | 45 | 4.8 | 9.7 | 0.00 | 0.00 | 0.03 | 54 | 1016.1 |
| 20260503212335 | 26 | 338 | 4.8 | 9.7 | 0.00 | 0.00 | 0.03 | 55 | 1016.1 |
| 20260503211839 | 26 | 45 | 6.4 | 12.9 | 0.00 | 0.00 | 0.03 | 55 | 1016.1 |
| 20260503211405 | 26 | 45 | 8.0 | 12.9 | 0.00 | 0.00 | 0.03 | 55 | 1016.1 |
| 20260503211001 | 26 | 45 | 1.6 | 11.3 | 0.00 | 0.00 | 0.03 | 56 | 1016.0 |
| 20260503210534 | 26 | 45 | 1.6 | 11.3 | 0.00 | 0.00 | 0.03 | 56 | 1016.0 |
| 20260503210054 | 26 | 45 | 3.2 | 8.0 | 0.00 | 0.00 | 0.03 | 55 | 1016.1 |
| 20260503205644 | 26 | 22 | 6.4 | 11.3 | 0.00 | 0.00 | 0.03 | 55 | 1016.1 |
| 20260503205221 | 26 | 338 | 6.4 | 11.3 | 0.00 | 0.00 | 0.03 | 55 | 1016.2 |
| 20260503204754 | 26 | 45 | 6.4 | 14.5 | 0.00 | 0.00 | 0.03 | 56 | 1016.2 |
| 20260503204335 | 26 | 45 | 6.4 | 12.9 | 0.00 | 0.00 | 0.03 | 55 | 1016.3 |
| 20260503203839 | 26 | 45 | 9.7 | 17.7 | 0.00 | 0.00 | 0.03 | 56 | 1016.3 |
| 20260503203409 | 26 | 68 | 4.8 | 12.9 | 0.00 | 0.00 | 0.03 | 56 | 1016.4 |
| 20260503203001 | 26 | 68 | 6.4 | 16.1 | 0.00 | 0.00 | 0.03 | 56 | 1016.4 |